sensor_id;sensor_type;location;lat;lon;timestamp;pressure;altitude;pressure_sealevel;temperature;humidity
36600;BME280;35385;55.668;37.508;2023-04-01T00:00:18;97888.22;;;1.72;100.00
36600;BME280;35385;55.668;37.508;2023-04-01T00:01:19;97880.78;;;1.77;100.00
36600;BME280;35385;55.668;37.508;2023-04-01T00:02:20;97895.66;;;1.90;100.00
36600;BME280;35385;55.668;37.508;2023-04-01T00:03:21;97898.78;;;1.84;100.00
36600;BME280;35385;55.668;37.508;2023-04-01T00:04:22;97859.72;;;1.66;100.00
36600;BME280;35385;55.668;37.508;2023-04-01T00:05:23;97901.84;;;1.77;100.00
36600;BME280;35385;55.668;37.508;2023-04-01T00:06:24;97891.91;;;1.70;100.00
36600;BME280;35385;55.668;37.508;2023-04-01T00:07:25;97880.44;;;1.71;100.00
36600;BME280;35385;55.668;37.508;2023-04-01T00:08:26;97889.53;;;1.78;100.00
36600;BME280;35385;55.668;37.508;2023-04-01T00:09:27;97892.78;;;1.82;100.00
36600;BME280;35385;55.668;37.508;2023-04-01T00:10:27;97893.31;;;1.98;100.00
36600;BME280;35385;55.668;37.508;2023-04-01T00:11:28;97896.16;;;1.95;100.00
36600;BME280;35385;55.668;37.508;2023-04-01T00:12:28;97848.97;;;1.69;100.00
36600;BME280;35385;55.668;37.508;2023-04-01T00:13:29;97893.66;;;1.93;100.00
36600;BME280;35385;55.668;37.508;2023-04-01T00:14:30;97831.59;;;1.67;100.00
36600;BME280;35385;55.668;37.508;2023-04-01T00:15:31;97875.94;;;1.95;100.00
36600;BME280;35385;55.668;37.508;2023-04-01T00:16:31;97892.59;;;2.07;100.00
36600;BME280;35385;55.668;37.508;2023-04-01T00:17:32;97880.03;;;1.99;100.00
36600;BME280;35385;55.668;37.508;2023-04-01T00:18:33;97880.47;;;1.93;100.00
36600;BME280;35385;55.668;37.508;2023-04-01T00:19:33;97882.31;;;2.04;100.00
36600;BME280;35385;55.668;37.508;2023-04-01T00:20:34;97884.25;;;2.13;100.00
36600;BME280;35385;55.668;37.508;2023-04-01T00:21:35;97876.34;;;2.13;100.00
36600;BME280;35385;55.668;37.508;2023-04-01T00:22:36;97883.19;;;2.27;100.00
36600;BME280;35385;55.668;37.508;2023-04-01T00:23:37;97865.81;;;2.13;100.00
36600;BME280;35385;55.668;37.508;2023-04-01T00:24:38;97836.03;;;1.77;100.00
36600;BME280;35385;55.668;37.508;2023-04-01T00:25:39;97881.34;;;2.05;100.00
36600;BME280;35385;55.668;37.508;2023-04-01T00:26:39;97886.63;;;2.05;100.00
36600;BME280;35385;55.668;37.508;2023-04-01T00:27:42;97882.78;;;1.98;100.00
36600;BME280;35385;55.668;37.508;2023-04-01T00:28:42;97864.06;;;1.90;100.00
36600;BME280;35385;55.668;37.508;2023-04-01T00:29:44;97847.81;;;1.85;100.00
36600;BME280;35385;55.668;37.508;2023-04-01T00:30:45;97881.84;;;2.10;100.00
36600;BME280;35385;55.668;37.508;2023-04-01T00:31:46;97871.66;;;2.05;100.00
36600;BME280;35385;55.668;37.508;2023-04-01T00:32:52;97869.63;;;2.09;100.00
36600;BME280;35385;55.668;37.508;2023-04-01T00:33:53;97876.56;;;2.10;100.00
36600;BME280;35385;55.668;37.508;2023-04-01T00:34:53;97841.09;;;1.92;100.00
36600;BME280;35385;55.668;37.508;2023-04-01T00:35:54;97838.00;;;1.98;100.00
36600;BME280;35385;55.668;37.508;2023-04-01T00:36:54;97872.50;;;2.17;100.00
36600;BME280;35385;55.668;37.508;2023-04-01T00:37:55;97879.72;;;2.15;100.00
36600;BME280;35385;55.668;37.508;2023-04-01T00:38:57;97863.84;;;1.93;100.00
36600;BME280;35385;55.668;37.508;2023-04-01T00:39:59;97867.59;;;2.01;100.00
36600;BME280;35385;55.668;37.508;2023-04-01T00:40:59;97872.97;;;2.00;100.00
36600;BME280;35385;55.668;37.508;2023-04-01T00:42:01;97834.16;;;1.91;100.00
36600;BME280;35385;55.668;37.508;2023-04-01T00:43:03;97837.00;;;1.88;100.00
36600;BME280;35385;55.668;37.508;2023-04-01T00:44:39;97867.81;;;1.98;100.00
36600;BME280;35385;55.668;37.508;2023-04-01T00:45:42;97867.75;;;1.76;100.00
36600;BME280;35385;55.668;37.508;2023-04-01T00:46:43;97871.72;;;1.82;100.00
36600;BME280;35385;55.668;37.508;2023-04-01T00:47:44;97876.28;;;1.91;100.00
36600;BME280;35385;55.668;37.508;2023-04-01T00:48:51;97877.03;;;2.04;100.00
36600;BME280;35385;55.668;37.508;2023-04-01T00:49:53;97873.81;;;2.11;100.00
36600;BME280;35385;55.668;37.508;2023-04-01T00:50:59;97861.38;;;2.13;100.00
36600;BME280;35385;55.668;37.508;2023-04-01T00:52:02;97792.84;;;1.69;100.00
36600;BME280;35385;55.668;37.508;2023-04-01T00:53:05;97830.13;;;1.98;100.00
36600;BME280;35385;55.668;37.508;2023-04-01T00:54:08;97860.91;;;2.20;100.00
36600;BME280;35385;55.668;37.508;2023-04-01T00:55:10;97872.03;;;2.23;100.00
36600;BME280;35385;55.668;37.508;2023-04-01T00:56:16;97876.00;;;2.29;100.00
36600;BME280;35385;55.668;37.508;2023-04-01T00:57:23;97876.59;;;2.32;100.00
36600;BME280;35385;55.668;37.508;2023-04-01T00:58:27;97852.19;;;2.30;100.00
36600;BME280;35385;55.668;37.508;2023-04-01T00:59:32;97875.66;;;2.44;100.00
36600;BME280;35385;55.668;37.508;2023-04-01T01:00:34;97874.56;;;2.47;100.00
36600;BME280;35385;55.668;37.508;2023-04-01T01:01:35;97866.78;;;2.45;100.00
36600;BME280;35385;55.668;37.508;2023-04-01T01:02:36;97878.03;;;2.47;100.00
36600;BME280;35385;55.668;37.508;2023-04-01T01:03:37;97856.50;;;2.42;100.00
36600;BME280;35385;55.668;37.508;2023-04-01T01:04:38;97867.16;;;2.52;100.00
36600;BME280;35385;55.668;37.508;2023-04-01T01:07:36;97874.72;;;2.57;100.00
36600;BME280;35385;55.668;37.508;2023-04-01T01:10:20;97865.72;;;2.48;100.00
36600;BME280;35385;55.668;37.508;2023-04-01T01:11:35;97834.59;;;2.31;100.00
36600;BME280;35385;55.668;37.508;2023-04-01T01:12:45;97834.22;;;2.24;100.00
36600;BME280;35385;55.668;37.508;2023-04-01T01:13:53;97876.63;;;2.55;100.00
36600;BME280;35385;55.668;37.508;2023-04-01T01:15:58;97878.75;;;2.61;100.00
36600;BME280;35385;55.668;37.508;2023-04-01T01:16:48;97875.28;;;2.60;100.00
36600;BME280;35385;55.668;37.508;2023-04-01T01:22:26;97883.91;;;2.62;100.00
36600;BME280;35385;55.668;37.508;2023-04-01T01:27:34;97888.47;;;2.38;100.00
36600;BME280;35385;55.668;37.508;2023-04-01T01:29:03;97885.59;;;2.52;100.00
36600;BME280;35385;55.668;37.508;2023-04-01T01:31:24;97876.00;;;2.51;100.00
36600;BME280;35385;55.668;37.508;2023-04-01T01:32:48;97884.31;;;2.58;100.00
36600;BME280;35385;55.668;37.508;2023-04-01T01:34:20;97879.03;;;2.58;100.00
36600;BME280;35385;55.668;37.508;2023-04-01T01:36:35;97868.59;;;2.45;100.00
36600;BME280;35385;55.668;37.508;2023-04-01T01:37:39;97829.78;;;2.25;100.00
36600;BME280;35385;55.668;37.508;2023-04-01T01:38:41;97877.69;;;2.41;100.00
36600;BME280;35385;55.668;37.508;2023-04-01T01:39:52;97884.75;;;2.29;100.00
36600;BME280;35385;55.668;37.508;2023-04-01T01:40:55;97870.72;;;2.18;100.00
36600;BME280;35385;55.668;37.508;2023-04-01T01:42:01;97868.66;;;1.99;100.00
36600;BME280;35385;55.668;37.508;2023-04-01T01:43:05;97835.72;;;1.82;100.00
36600;BME280;35385;55.668;37.508;2023-04-01T01:44:08;97880.78;;;2.12;100.00
36600;BME280;35385;55.668;37.508;2023-04-01T01:45:11;97870.81;;;2.05;100.00
36600;BME280;35385;55.668;37.508;2023-04-01T01:46:19;97866.16;;;2.08;100.00
36600;BME280;35385;55.668;37.508;2023-04-01T01:47:22;97835.09;;;1.90;100.00
36600;BME280;35385;55.668;37.508;2023-04-01T01:48:24;97869.38;;;2.01;100.00
36600;BME280;35385;55.668;37.508;2023-04-01T01:49:27;97884.38;;;2.23;100.00
36600;BME280;35385;55.668;37.508;2023-04-01T01:50:30;97870.84;;;2.16;100.00
36600;BME280;35385;55.668;37.508;2023-04-01T01:51:31;97880.78;;;2.12;100.00
36600;BME280;35385;55.668;37.508;2023-04-01T01:52:32;97878.88;;;2.15;100.00
36600;BME280;35385;55.668;37.508;2023-04-01T01:53:33;97868.56;;;2.11;100.00
36600;BME280;35385;55.668;37.508;2023-04-01T01:54:33;97876.34;;;2.13;100.00
36600;BME280;35385;55.668;37.508;2023-04-01T01:55:36;97883.41;;;2.24;100.00
36600;BME280;35385;55.668;37.508;2023-04-01T01:56:38;97882.34;;;2.26;100.00
36600;BME280;35385;55.668;37.508;2023-04-01T01:57:39;97876.81;;;2.18;100.00
36600;BME280;35385;55.668;37.508;2023-04-01T01:58:47;97848.78;;;1.95;100.00
36600;BME280;35385;55.668;37.508;2023-04-01T01:59:52;97882.41;;;2.02;100.00
36600;BME280;35385;55.668;37.508;2023-04-01T02:01:05;97877.97;;;1.92;100.00
36600;BME280;35385;55.668;37.508;2023-04-01T02:02:07;97876.78;;;1.96;100.00
36600;BME280;35385;55.668;37.508;2023-04-01T02:03:11;97837.09;;;1.64;100.00
36600;BME280;35385;55.668;37.508;2023-04-01T02:04:13;97894.81;;;1.89;100.00
36600;BME280;35385;55.668;37.508;2023-04-01T02:05:19;97802.25;;;1.49;100.00
36600;BME280;35385;55.668;37.508;2023-04-01T02:06:24;97885.53;;;2.07;100.00
36600;BME280;35385;55.668;37.508;2023-04-01T02:07:31;97881.22;;;2.06;100.00
36600;BME280;35385;55.668;37.508;2023-04-01T02:08:52;97878.97;;;2.02;100.00
36600;BME280;35385;55.668;37.508;2023-04-01T02:09:56;97843.72;;;1.81;100.00
36600;BME280;35385;55.668;37.508;2023-04-01T02:11:02;97887.13;;;2.10;100.00
36600;BME280;35385;55.668;37.508;2023-04-01T02:12:06;97837.16;;;1.86;100.00
36600;BME280;35385;55.668;37.508;2023-04-01T02:13:15;97841.31;;;1.77;100.00
36600;BME280;35385;55.668;37.508;2023-04-01T02:14:20;97893.09;;;2.01;100.00
36600;BME280;35385;55.668;37.508;2023-04-01T02:15:24;97888.50;;;2.03;100.00
36600;BME280;35385;55.668;37.508;2023-04-01T02:16:36;97889.63;;;2.11;100.00
36600;BME280;35385;55.668;37.508;2023-04-01T02:17:42;97880.16;;;2.09;100.00
36600;BME280;35385;55.668;37.508;2023-04-01T02:18:45;97838.31;;;1.71;100.00
36600;BME280;35385;55.668;37.508;2023-04-01T02:19:52;97758.72;;;1.10;100.00
36600;BME280;35385;55.668;37.508;2023-04-01T02:20:53;97880.72;;;1.90;100.00
36600;BME280;35385;55.668;37.508;2023-04-01T02:21:59;97843.91;;;1.66;100.00
36600;BME280;35385;55.668;37.508;2023-04-01T02:23:02;97887.03;;;1.88;100.00
36600;BME280;35385;55.668;37.508;2023-04-01T02:24:06;97895.66;;;1.90;100.00
36600;BME280;35385;55.668;37.508;2023-04-01T02:25:11;97888.34;;;1.82;100.00
36600;BME280;35385;55.668;37.508;2023-04-01T02:26:13;97893.75;;;1.92;100.00
36600;BME280;35385;55.668;37.508;2023-04-01T02:27:15;97873.53;;;1.92;100.00
36600;BME280;35385;55.668;37.508;2023-04-01T02:28:17;97899.56;;;2.08;100.00
36600;BME280;35385;55.668;37.508;2023-04-01T02:29:22;97883.97;;;1.94;100.00
36600;BME280;35385;55.668;37.508;2023-04-01T02:30:23;97883.72;;;1.97;100.00
36600;BME280;35385;55.668;37.508;2023-04-01T02:31:25;97901.72;;;2.14;100.00
36600;BME280;35385;55.668;37.508;2023-04-01T02:32:27;97894.03;;;2.00;100.00
36600;BME280;35385;55.668;37.508;2023-04-01T02:33:30;97869.78;;;1.72;100.00
36600;BME280;35385;55.668;37.508;2023-04-01T02:34:32;97898.16;;;1.80;100.00
36600;BME280;35385;55.668;37.508;2023-04-01T02:35:36;97888.69;;;1.77;100.00
36600;BME280;35385;55.668;37.508;2023-04-01T02:36:37;97895.59;;;1.67;100.00
36600;BME280;35385;55.668;37.508;2023-04-01T02:37:39;97900.66;;;1.70;100.00
36600;BME280;35385;55.668;37.508;2023-04-01T02:38:44;97880.06;;;1.75;100.00
36600;BME280;35385;55.668;37.508;2023-04-01T02:39:45;97896.78;;;1.98;100.00
36600;BME280;35385;55.668;37.508;2023-04-01T02:40:49;97902.06;;;2.09;100.00
36600;BME280;35385;55.668;37.508;2023-04-01T02:41:49;97856.28;;;1.88;100.00
36600;BME280;35385;55.668;37.508;2023-04-01T02:42:50;97817.09;;;1.61;100.00
36600;BME280;35385;55.668;37.508;2023-04-01T02:43:51;97896.19;;;2.06;100.00
36600;BME280;35385;55.668;37.508;2023-04-01T02:44:51;97876.50;;;1.88;100.00
36600;BME280;35385;55.668;37.508;2023-04-01T02:45:52;97905.44;;;2.11;100.00
36600;BME280;35385;55.668;37.508;2023-04-01T02:46:52;97849.91;;;1.68;100.00
36600;BME280;35385;55.668;37.508;2023-04-01T02:47:53;97885.03;;;1.91;100.00
36600;BME280;35385;55.668;37.508;2023-04-01T02:48:53;97906.31;;;1.88;100.00
36600;BME280;35385;55.668;37.508;2023-04-01T02:49:54;97885.59;;;1.72;100.00
36600;BME280;35385;55.668;37.508;2023-04-01T02:50:58;97840.31;;;1.32;100.00
36600;BME280;35385;55.668;37.508;2023-04-01T02:51:58;97915.50;;;1.71;100.00
36600;BME280;35385;55.668;37.508;2023-04-01T02:52:59;97908.44;;;1.72;100.00
36600;BME280;35385;55.668;37.508;2023-04-01T02:54:01;97909.50;;;1.69;100.00
36600;BME280;35385;55.668;37.508;2023-04-01T02:55:02;97904.97;;;1.71;100.00
36600;BME280;35385;55.668;37.508;2023-04-01T02:56:03;97906.47;;;1.63;100.00
36600;BME280;35385;55.668;37.508;2023-04-01T02:57:04;97813.31;;;1.06;100.00
36600;BME280;35385;55.668;37.508;2023-04-01T02:58:04;97902.25;;;1.60;100.00
36600;BME280;35385;55.668;37.508;2023-04-01T02:59:05;97900.16;;;1.65;100.00
36600;BME280;35385;55.668;37.508;2023-04-01T03:00:06;97899.69;;;1.71;100.00
36600;BME280;35385;55.668;37.508;2023-04-01T03:01:11;97896.59;;;1.77;100.00
36600;BME280;35385;55.668;37.508;2023-04-01T03:02:12;97905.88;;;1.94;100.00
36600;BME280;35385;55.668;37.508;2023-04-01T03:03:13;97905.31;;;2.02;100.00
36600;BME280;35385;55.668;37.508;2023-04-01T03:04:14;97879.16;;;1.88;100.00
36600;BME280;35385;55.668;37.508;2023-04-01T03:05:14;97912.72;;;2.08;100.00
36600;BME280;35385;55.668;37.508;2023-04-01T03:06:16;97910.56;;;2.02;100.00
36600;BME280;35385;55.668;37.508;2023-04-01T03:07:17;97890.25;;;1.80;100.00
36600;BME280;35385;55.668;37.508;2023-04-01T03:08:17;97903.31;;;1.82;100.00
36600;BME280;35385;55.668;37.508;2023-04-01T03:09:18;97867.56;;;1.55;100.00
36600;BME280;35385;55.668;37.508;2023-04-01T03:10:18;97902.34;;;1.71;100.00
36600;BME280;35385;55.668;37.508;2023-04-01T03:11:19;97879.06;;;1.54;100.00
36600;BME280;35385;55.668;37.508;2023-04-01T03:12:20;97914.09;;;1.90;100.00
36600;BME280;35385;55.668;37.508;2023-04-01T03:13:20;97908.69;;;1.80;100.00
36600;BME280;35385;55.668;37.508;2023-04-01T03:14:21;97914.19;;;1.77;100.00
36600;BME280;35385;55.668;37.508;2023-04-01T03:15:21;97867.25;;;1.36;100.00
36600;BME280;35385;55.668;37.508;2023-04-01T03:16:23;97920.03;;;1.69;100.00
36600;BME280;35385;55.668;37.508;2023-04-01T03:17:23;97916.69;;;1.78;100.00
36600;BME280;35385;55.668;37.508;2023-04-01T03:18:24;97904.91;;;1.60;100.00
36600;BME280;35385;55.668;37.508;2023-04-01T03:19:25;97906.44;;;1.52;100.00
36600;BME280;35385;55.668;37.508;2023-04-01T03:20:25;97868.09;;;1.13;100.00
36600;BME280;35385;55.668;37.508;2023-04-01T03:21:26;97931.16;;;1.49;100.00
36600;BME280;35385;55.668;37.508;2023-04-01T03:22:26;97918.47;;;1.43;100.00
36600;BME280;35385;55.668;37.508;2023-04-01T03:23:27;97864.94;;;1.08;100.00
36600;BME280;35385;55.668;37.508;2023-04-01T03:24:27;97868.31;;;1.10;100.00
36600;BME280;35385;55.668;37.508;2023-04-01T03:25:28;97922.06;;;1.42;100.00
36600;BME280;35385;55.668;37.508;2023-04-01T03:26:30;97922.06;;;1.42;100.00
36600;BME280;35385;55.668;37.508;2023-04-01T03:27:31;97927.31;;;1.42;100.00
36600;BME280;35385;55.668;37.508;2023-04-01T03:28:33;97915.84;;;1.43;100.00
36600;BME280;35385;55.668;37.508;2023-04-01T03:29:33;97924.88;;;1.63;100.00
36600;BME280;35385;55.668;37.508;2023-04-01T03:30:34;97879.88;;;1.31;100.00
36600;BME280;35385;55.668;37.508;2023-04-01T03:31:35;97903.69;;;1.53;100.00
36600;BME280;35385;55.668;37.508;2023-04-01T03:32:35;97874.69;;;1.42;100.00
36600;BME280;35385;55.668;37.508;2023-04-01T03:33:36;97900.88;;;1.67;100.00
36600;BME280;35385;55.668;37.508;2023-04-01T03:34:37;97916.19;;;1.73;100.00
36600;BME280;35385;55.668;37.508;2023-04-01T03:35:37;97927.75;;;1.84;100.00
36600;BME280;35385;55.668;37.508;2023-04-01T03:36:38;97920.28;;;1.77;100.00
36600;BME280;35385;55.668;37.508;2023-04-01T03:37:38;97937.34;;;1.96;100.00
36600;BME280;35385;55.668;37.508;2023-04-01T03:38:42;97914.56;;;1.84;100.00
36600;BME280;35385;55.668;37.508;2023-04-01T03:39:43;97943.47;;;1.96;100.00
36600;BME280;35385;55.668;37.508;2023-04-01T03:40:44;97930.41;;;1.95;100.00
36600;BME280;35385;55.668;37.508;2023-04-01T03:41:46;97914.94;;;1.90;100.00
36600;BME280;35385;55.668;37.508;2023-04-01T03:42:46;97945.91;;;2.10;100.00
36600;BME280;35385;55.668;37.508;2023-04-01T03:43:47;97939.03;;;1.97;100.00
36600;BME280;35385;55.668;37.508;2023-04-01T03:44:47;97852.97;;;1.51;100.00
36600;BME280;35385;55.668;37.508;2023-04-01T03:45:49;97936.91;;;2.02;100.00
36600;BME280;35385;55.668;37.508;2023-04-01T03:46:50;97927.88;;;1.93;100.00
36600;BME280;35385;55.668;37.508;2023-04-01T03:47:51;97939.66;;;2.00;100.00
36600;BME280;35385;55.668;37.508;2023-04-01T03:48:51;97946.34;;;2.04;100.00
36600;BME280;35385;55.668;37.508;2023-04-01T03:49:52;97925.34;;;1.92;100.00
36600;BME280;35385;55.668;37.508;2023-04-01T03:50:53;97944.31;;;2.08;100.00
36600;BME280;35385;55.668;37.508;2023-04-01T03:51:53;97893.84;;;1.79;100.00
36600;BME280;35385;55.668;37.508;2023-04-01T03:52:54;97945.41;;;2.05;100.00
36600;BME280;35385;55.668;37.508;2023-04-01T03:53:54;97960.72;;;2.00;100.00
36600;BME280;35385;55.668;37.508;2023-04-01T03:54:55;97947.66;;;1.99;100.00
36600;BME280;35385;55.668;37.508;2023-04-01T03:55:55;97952.22;;;2.08;100.00
36600;BME280;35385;55.668;37.508;2023-04-01T03:56:56;97946.50;;;2.14;100.00
36600;BME280;35385;55.668;37.508;2023-04-01T03:57:57;97957.03;;;2.14;100.00
36600;BME280;35385;55.668;37.508;2023-04-01T03:58:58;97954.09;;;1.95;100.00
36600;BME280;35385;55.668;37.508;2023-04-01T04:00:01;97884.09;;;1.57;100.00
36600;BME280;35385;55.668;37.508;2023-04-01T04:01:02;97956.75;;;2.06;100.00
36600;BME280;35385;55.668;37.508;2023-04-01T04:02:02;97909.53;;;1.81;100.00
36600;BME280;35385;55.668;37.508;2023-04-01T04:03:03;97960.63;;;2.13;100.00
36600;BME280;35385;55.668;37.508;2023-04-01T04:04:04;97963.84;;;2.17;100.00
36600;BME280;35385;55.668;37.508;2023-04-01T04:05:05;97960.88;;;2.21;100.00
36600;BME280;35385;55.668;37.508;2023-04-01T04:06:11;97952.19;;;1.97;100.00
36600;BME280;35385;55.668;37.508;2023-04-01T04:07:12;97963.72;;;2.07;100.00
36600;BME280;35385;55.668;37.508;2023-04-01T04:08:12;97948.25;;;2.02;100.00
36600;BME280;35385;55.668;37.508;2023-04-01T04:09:13;97969.00;;;2.18;100.00
36600;BME280;35385;55.668;37.508;2023-04-01T04:10:14;97957.28;;;2.11;100.00
36600;BME280;35385;55.668;37.508;2023-04-01T04:11:15;97960.63;;;2.13;100.00
36600;BME280;35385;55.668;37.508;2023-04-01T04:12:15;97958.13;;;2.11;100.00
36600;BME280;35385;55.668;37.508;2023-04-01T04:13:16;97968.16;;;2.18;100.00
36600;BME280;35385;55.668;37.508;2023-04-01T04:14:17;97959.31;;;2.19;100.00
36600;BME280;35385;55.668;37.508;2023-04-01T04:15:17;97979.50;;;2.31;100.00
36600;BME280;35385;55.668;37.508;2023-04-01T04:16:18;97948.19;;;2.15;100.00
36600;BME280;35385;55.668;37.508;2023-04-01T04:17:18;97972.66;;;2.28;100.00
36600;BME280;35385;55.668;37.508;2023-04-01T04:18:19;97926.69;;;1.86;100.00
36600;BME280;35385;55.668;37.508;2023-04-01T04:19:20;97974.72;;;2.01;100.00
36600;BME280;35385;55.668;37.508;2023-04-01T04:20:20;97972.31;;;1.98;100.00
36600;BME280;35385;55.668;37.508;2023-04-01T04:21:21;97977.22;;;2.02;100.00
36600;BME280;35385;55.668;37.508;2023-04-01T04:22:21;97972.88;;;1.90;100.00
36600;BME280;35385;55.668;37.508;2023-04-01T04:23:22;97984.63;;;1.97;100.00
36600;BME280;35385;55.668;37.508;2023-04-01T04:24:23;97975.13;;;1.84;100.00
36600;BME280;35385;55.668;37.508;2023-04-01T04:25:23;97981.19;;;1.73;100.00
36600;BME280;35385;55.668;37.508;2023-04-01T04:26:24;97971.19;;;1.65;100.00
36600;BME280;35385;55.668;37.508;2023-04-01T04:27:24;97965.94;;;1.65;100.00
36600;BME280;35385;55.668;37.508;2023-04-01T04:28:26;97981.22;;;1.60;100.00
36600;BME280;35385;55.668;37.508;2023-04-01T04:29:27;97980.25;;;1.61;100.00
36600;BME280;35385;55.668;37.508;2023-04-01T04:30:27;97984.38;;;1.65;100.00
36600;BME280;35385;55.668;37.508;2023-04-01T04:31:28;97969.97;;;1.58;100.00
36600;BME280;35385;55.668;37.508;2023-04-01T04:32:29;97986.72;;;1.81;100.00
36600;BME280;35385;55.668;37.508;2023-04-01T04:33:30;97977.41;;;1.64;100.00
36600;BME280;35385;55.668;37.508;2023-04-01T04:34:31;97987.63;;;1.69;100.00
36600;BME280;35385;55.668;37.508;2023-04-01T04:35:32;97981.31;;;1.59;100.00
36600;BME280;35385;55.668;37.508;2023-04-01T04:36:33;97917.16;;;1.25;100.00
36600;BME280;35385;55.668;37.508;2023-04-01T04:37:33;97933.47;;;1.30;100.00
36600;BME280;35385;55.668;37.508;2023-04-01T04:38:34;97987.84;;;1.66;100.00
36600;BME280;35385;55.668;37.508;2023-04-01T04:39:34;97843.06;;;0.83;100.00
36600;BME280;35385;55.668;37.508;2023-04-01T04:40:38;97994.50;;;1.83;100.00
36600;BME280;35385;55.668;37.508;2023-04-01T04:41:40;97972.19;;;1.75;100.00
36600;BME280;35385;55.668;37.508;2023-04-01T04:42:40;97964.47;;;1.85;100.00
36600;BME280;35385;55.668;37.508;2023-04-01T04:43:41;97991.22;;;2.03;100.00
36600;BME280;35385;55.668;37.508;2023-04-01T04:44:42;97979.25;;;1.99;100.00
36600;BME280;35385;55.668;37.508;2023-04-01T04:45:43;97979.81;;;1.91;100.00
36600;BME280;35385;55.668;37.508;2023-04-01T04:46:43;97989.28;;;1.94;100.00
36600;BME280;35385;55.668;37.508;2023-04-01T04:47:44;97990.44;;;1.90;100.00
36600;BME280;35385;55.668;37.508;2023-04-01T04:48:45;97924.28;;;1.59;100.00
36600;BME280;35385;55.668;37.508;2023-04-01T04:49:45;97949.72;;;1.71;100.00
36600;BME280;35385;55.668;37.508;2023-04-01T04:50:47;97937.72;;;1.67;100.00
36600;BME280;35385;55.668;37.508;2023-04-01T04:51:48;97949.09;;;1.68;100.00
36600;BME280;35385;55.668;37.508;2023-04-01T04:52:50;98002.66;;;1.91;100.00
36600;BME280;35385;55.668;37.508;2023-04-01T04:53:50;98004.56;;;1.89;100.00
36600;BME280;35385;55.668;37.508;2023-04-01T04:54:51;97987.16;;;1.75;100.00
36600;BME280;35385;55.668;37.508;2023-04-01T04:55:52;97938.31;;;1.47;100.00
36600;BME280;35385;55.668;37.508;2023-04-01T04:56:53;97996.22;;;1.95;100.00
36600;BME280;35385;55.668;37.508;2023-04-01T04:57:53;98002.84;;;2.00;100.00
36600;BME280;35385;55.668;37.508;2023-04-01T04:58:54;98008.72;;;2.04;100.00
36600;BME280;35385;55.668;37.508;2023-04-01T04:59:55;97984.25;;;1.91;100.00
36600;BME280;35385;55.668;37.508;2023-04-01T05:00:55;97997.28;;;1.92;100.00
36600;BME280;35385;55.668;37.508;2023-04-01T05:01:56;98010.66;;;2.02;100.00
36600;BME280;35385;55.668;37.508;2023-04-01T05:02:56;98001.94;;;2.12;100.00
36600;BME280;35385;55.668;37.508;2023-04-01T05:03:57;97998.94;;;2.17;100.00
36600;BME280;35385;55.668;37.508;2023-04-01T05:04:57;98015.91;;;2.37;100.00
36600;BME280;35385;55.668;37.508;2023-04-01T05:05:58;98003.31;;;2.29;100.00
36600;BME280;35385;55.668;37.508;2023-04-01T05:06:59;97968.94;;;1.96;100.00
36600;BME280;35385;55.668;37.508;2023-04-01T05:07:59;98005.03;;;2.18;100.00
36600;BME280;35385;55.668;37.508;2023-04-01T05:09:00;98003.63;;;2.13;100.00
36600;BME280;35385;55.668;37.508;2023-04-01T05:10:00;98013.16;;;2.38;100.00
36600;BME280;35385;55.668;37.508;2023-04-01T05:11:01;97953.47;;;2.15;100.00
36600;BME280;35385;55.668;37.508;2023-04-01T05:12:02;98005.16;;;2.51;100.00
36600;BME280;35385;55.668;37.508;2023-04-01T05:13:03;98001.53;;;2.41;100.00
36600;BME280;35385;55.668;37.508;2023-04-01T05:14:03;97979.09;;;2.24;100.00
36600;BME280;35385;55.668;37.508;2023-04-01T05:15:05;98020.63;;;2.56;100.00
36600;BME280;35385;55.668;37.508;2023-04-01T05:16:11;97973.09;;;2.22;100.00
36600;BME280;35385;55.668;37.508;2023-04-01T05:17:12;97983.19;;;2.28;100.00
36600;BME280;35385;55.668;37.508;2023-04-01T05:18:13;98001.06;;;2.47;100.00
36600;BME280;35385;55.668;37.508;2023-04-01T05:19:13;98024.22;;;2.55;100.00
36600;BME280;35385;55.668;37.508;2023-04-01T05:20:15;98034.13;;;2.40;100.00
36600;BME280;35385;55.668;37.508;2023-04-01T05:21:15;97951.03;;;2.01;100.00
36600;BME280;35385;55.668;37.508;2023-04-01T05:22:16;98011.91;;;2.31;100.00
36600;BME280;35385;55.668;37.508;2023-04-01T05:23:17;98028.75;;;2.41;100.00
36600;BME280;35385;55.668;37.508;2023-04-01T05:24:18;98021.91;;;2.39;100.00
36600;BME280;35385;55.668;37.508;2023-04-01T05:25:18;98037.38;;;2.43;100.00
36600;BME280;35385;55.668;37.508;2023-04-01T05:26:19;98036.91;;;2.49;100.00
36600;BME280;35385;55.668;37.508;2023-04-01T05:27:19;98034.03;;;2.53;100.00
36600;BME280;35385;55.668;37.508;2023-04-01T05:28:20;98039.81;;;2.58;100.00
36600;BME280;35385;55.668;37.508;2023-04-01T05:29:21;97988.47;;;2.39;100.00
36600;BME280;35385;55.668;37.508;2023-04-01T05:30:21;98026.03;;;2.65;100.00
36600;BME280;35385;55.668;37.508;2023-04-01T05:31:22;98024.75;;;2.71;100.00
36600;BME280;35385;55.668;37.508;2023-04-01T05:32:24;98027.09;;;2.63;100.00
36600;BME280;35385;55.668;37.508;2023-04-01T05:33:24;97990.81;;;2.55;100.00
36600;BME280;35385;55.668;37.508;2023-04-01T05:34:25;98022.34;;;2.79;100.00
36600;BME280;35385;55.668;37.508;2023-04-01T05:35:26;98006.13;;;2.61;100.00
36600;BME280;35385;55.668;37.508;2023-04-01T05:36:26;98035.97;;;2.62;100.00
36600;BME280;35385;55.668;37.508;2023-04-01T05:37:27;98028.75;;;2.53;100.00
36600;BME280;35385;55.668;37.508;2023-04-01T05:38:27;98041.25;;;2.62;100.00
36600;BME280;35385;55.668;37.508;2023-04-01T05:39:28;98033.22;;;2.63;100.00
36600;BME280;35385;55.668;37.508;2023-04-01T05:40:29;98015.16;;;2.70;100.00